YKEL weather

Kelvin Station Airport
New South Wales, Australia

Public forecast

Using degrees Celsius for public forecast. Weather courtesy of forecast.io.

METAR (pilot weather report)

Closest report is Tamworth Airport, 48.2 nm (89.3 km) WSW. Retrieved 2019/02/23 11:00 UTC (9 minutes ago):

YSTW 231100Z AUTO 17008KT 9999 // OVC054 20/10 Q1022 RF00.0/000.0

TAF (pilot weather forecast)

Closest forecast is Tamworth Airport, 48.2 nm (89.3 km) WSW. Retrieved 2019/02/23 06:36 UTC (5 hours ago):

TAF TAF YSTW 230457Z 2306/2324 13018G28KT 9999 SCT060 FM231100 14013KT 9999 BKN040